Check out our new PWSWeather beta!
PWSweather.com
Personal Weather Stations
Station Observations
OINOFYTA
Oinofyta Greece, OinofytaGR 320 11

Oinofyta GreeceOinofytaGR 320 11

Lat: 38.3080648, Lon: 23.6391172

Elevation: 354

Station Type: ProWeatherStation 1080

https://oinofytaweather.gr/

High Low Average
Temperature 52.0°F11.1°C 41.9°F5.5°C 47.2°F8.4°C
Dew Point 44.6°F7.0°C 32.3°F0.2°C 38.8°F3.8°C
Winds 12.2 mph 19.6 kmh 0.1 mph 0.2 kmh 5.0 mph W8.0 kmh W
Wind Gusts 28.2 mph45.4 kmh 2.2 mph3.5 kmh 12.0 mph19.3 kmh
Humidity 95% 54% 74%
Pressure 30.32 in1026.8 mb 30.13 in1020.3 mb -
Precipitation 0.00 in0.0 mm - -
Hour Temp Dew Point Humidity Winds Wind Gusts Pressure Precip Precip Rate Daily Precip Total
12:00 AM 47.5°F8.6°C 43.5°F6.4°C 86% 2.3 mph W3.7 kmh W 6.0 mph9.7 kmh 30.14 in1020.7 mb 0.00 in0.0 mm 0.00 in0.0 mm 0.00 in0.0 mm
12:05 AM 47.1°F8.4°C 43.2°F6.2°C 86% 1.4 mph W2.3 kmh W 4.5 mph7.2 kmh 30.14 in1020.7 mb 0.00 in0.0 mm 0.00 in0.0 mm 0.00 in0.0 mm
12:10 AM 46.6°F8.1°C 42.9°F6.1°C 87% 0.6 mph WSW1.0 kmh WSW 4.5 mph7.2 kmh 30.14 in1020.7 mb 0.00 in0.0 mm 0.00 in0.0 mm 0.00 in0.0 mm
12:15 AM 46.2°F7.9°C 42.9°F6.1°C 88% 0.3 mph W0.5 kmh W 3.1 mph5.0 kmh 30.14 in1020.7 mb 0.00 in0.0 mm 0.00 in0.0 mm 0.00 in0.0 mm
12:20 AM 46.0°F7.8°C 43.0°F6.1°C 89% 0.3 mph WSW0.5 kmh WSW 3.1 mph5.0 kmh 30.14 in1020.7 mb 0.00 in0.0 mm 0.00 in0.0 mm 0.00 in0.0 mm
12:25 AM 45.9°F7.7°C 42.8°F6.0°C 89% 0.4 mph W0.6 kmh W 3.1 mph5.0 kmh 30.14 in1020.7 mb 0.00 in0.0 mm 0.00 in0.0 mm 0.00 in0.0 mm
12:30 AM 45.7°F7.6°C 42.9°F6.1°C 90% 0.3 mph NW0.5 kmh NW 2.2 mph3.5 kmh 30.14 in1020.7 mb 0.00 in0.0 mm 0.00 in0.0 mm 0.00 in0.0 mm
12:35 AM 45.9°F7.7°C 43.1°F6.2°C 90% 0.4 mph SSW0.6 kmh SSW 3.1 mph5.0 kmh 30.14 in1020.7 mb 0.00 in0.0 mm 0.00 in0.0 mm 0.00 in0.0 mm
12:40 AM 45.9°F7.7°C 43.1°F6.2°C 90% 1.2 mph SW1.9 kmh SW 4.5 mph7.2 kmh 30.13 in1020.3 mb 0.00 in0.0 mm 0.00 in0.0 mm 0.00 in0.0 mm
12:45 AM 45.5°F7.5°C 42.7°F5.9°C 90% 1.2 mph SW1.9 kmh SW 4.5 mph7.2 kmh 30.14 in1020.7 mb 0.00 in0.0 mm 0.00 in0.0 mm 0.00 in0.0 mm
12:50 AM 45.0°F7.2°C 42.5°F5.8°C 91% 0.6 mph SSW1.0 kmh SSW 3.8 mph6.1 kmh 30.14 in1020.7 mb 0.00 in0.0 mm 0.00 in0.0 mm 0.00 in0.0 mm
12:55 AM 44.8°F7.1°C 42.6°F5.9°C 92% 0.1 mph E0.2 kmh E 2.2 mph3.5 kmh 30.14 in1020.7 mb 0.00 in0.0 mm 0.00 in0.0 mm 0.00 in0.0 mm
01:00 AM 44.6°F7.0°C 42.4°F5.8°C 92% 0.5 mph ESE0.8 kmh ESE 3.1 mph5.0 kmh 30.14 in1020.7 mb 0.00 in0.0 mm 0.00 in0.0 mm 0.00 in0.0 mm
01:05 AM 44.6°F7.0°C 42.7°F5.9°C 93% 0.8 mph SE1.3 kmh SE 3.1 mph5.0 kmh 30.14 in1020.7 mb 0.00 in0.0 mm 0.00 in0.0 mm 0.00 in0.0 mm
01:10 AM 44.6°F7.0°C 42.7°F5.9°C 93% 0.4 mph S0.6 kmh S 2.2 mph3.5 kmh 30.14 in1020.7 mb 0.00 in0.0 mm 0.00 in0.0 mm 0.00 in0.0 mm
01:15 AM 44.1°F6.7°C 41.9°F5.5°C 92% 0.2 mph W0.3 kmh W 2.2 mph3.5 kmh 30.14 in1020.7 mb 0.00 in0.0 mm 0.00 in0.0 mm 0.00 in0.0 mm
01:20 AM 44.8°F7.1°C 43.4°F6.3°C 95% 0.7 mph WSW1.1 kmh WSW 3.8 mph6.1 kmh 30.14 in1020.7 mb 0.00 in0.0 mm 0.00 in0.0 mm 0.00 in0.0 mm
01:25 AM 45.7°F7.6°C 43.5°F6.4°C 92% 0.7 mph SW1.1 kmh SW 3.8 mph6.1 kmh 30.14 in1020.7 mb 0.00 in0.0 mm 0.00 in0.0 mm 0.00 in0.0 mm
01:30 AM 45.9°F7.7°C 43.4°F6.3°C 91% 0.3 mph SW0.5 kmh SW 3.1 mph5.0 kmh 30.14 in1020.7 mb 0.00 in0.0 mm 0.00 in0.0 mm 0.00 in0.0 mm
01:35 AM 45.9°F7.7°C 43.1°F6.2°C 90% 1.0 mph SW1.6 kmh SW 5.4 mph8.7 kmh 30.14 in1020.7 mb 0.00 in0.0 mm 0.00 in0.0 mm 0.00 in0.0 mm
01:40 AM 45.9°F7.7°C 42.8°F6.0°C 89% 1.7 mph SW2.7 kmh SW 5.4 mph8.7 kmh 30.14 in1020.7 mb 0.00 in0.0 mm 0.00 in0.0 mm 0.00 in0.0 mm
01:45 AM 45.7°F7.6°C 42.6°F5.9°C 89% 1.4 mph SW2.3 kmh SW 5.4 mph8.7 kmh 30.14 in1020.7 mb 0.00 in0.0 mm 0.00 in0.0 mm 0.00 in0.0 mm
01:50 AM 44.8°F7.1°C 41.7°F5.4°C 89% 0.9 mph S1.4 kmh S 5.4 mph8.7 kmh 30.14 in1020.7 mb 0.00 in0.0 mm 0.00 in0.0 mm 0.00 in0.0 mm
01:55 AM 44.1°F6.7°C 41.6°F5.3°C 91% 0.6 mph SSE1.0 kmh SSE 3.1 mph5.0 kmh 30.15 in1021.0 mb 0.00 in0.0 mm 0.00 in0.0 mm 0.00 in0.0 mm
02:00 AM 44.2°F6.8°C 42.1°F5.6°C 92% 0.6 mph SW1.0 kmh SW 3.1 mph5.0 kmh 30.15 in1021.0 mb 0.00 in0.0 mm 0.00 in0.0 mm 0.00 in0.0 mm
02:05 AM 44.2°F6.8°C 42.1°F5.6°C 92% 0.6 mph SW1.0 kmh SW 3.1 mph5.0 kmh 30.15 in1021.0 mb 0.00 in0.0 mm 0.00 in0.0 mm 0.00 in0.0 mm
02:30 AM 44.4°F6.9°C 42.0°F5.6°C 91% 0.9 mph SW1.4 kmh SW 4.5 mph7.2 kmh 30.15 in1021.0 mb 0.00 in0.0 mm 0.00 in0.0 mm 0.00 in0.0 mm
02:35 AM 44.1°F6.7°C 41.6°F5.3°C 91% 0.4 mph SW0.6 kmh SW 3.8 mph6.1 kmh 30.15 in1021.0 mb 0.00 in0.0 mm 0.00 in0.0 mm 0.00 in0.0 mm
02:40 AM 43.7°F6.5°C 41.2°F5.1°C 91% 0.4 mph SW0.6 kmh SW 3.1 mph5.0 kmh 30.15 in1021.0 mb 0.00 in0.0 mm 0.00 in0.0 mm 0.00 in0.0 mm
02:45 AM 43.5°F6.4°C 41.4°F5.2°C 92% 0.7 mph W1.1 kmh W 3.8 mph6.1 kmh 30.15 in1021.0 mb 0.00 in0.0 mm 0.00 in0.0 mm 0.00 in0.0 mm
02:50 AM 43.7°F6.5°C 41.8°F5.4°C 93% 1.1 mph W1.8 kmh W 4.5 mph7.2 kmh 30.15 in1021.0 mb 0.00 in0.0 mm 0.00 in0.0 mm 0.00 in0.0 mm
02:55 AM 44.2°F6.8°C 42.3°F5.7°C 93% 1.1 mph WSW1.8 kmh WSW 4.5 mph7.2 kmh 30.14 in1020.7 mb 0.00 in0.0 mm 0.00 in0.0 mm 0.00 in0.0 mm
03:00 AM 44.4°F6.9°C 42.2°F5.7°C 92% 1.5 mph WSW2.4 kmh WSW 5.4 mph8.7 kmh 30.15 in1021.0 mb 0.00 in0.0 mm 0.00 in0.0 mm 0.00 in0.0 mm
03:05 AM 44.6°F7.0°C 42.1°F5.6°C 91% 1.6 mph WSW2.6 kmh WSW 5.4 mph8.7 kmh 30.15 in1021.0 mb 0.00 in0.0 mm 0.00 in0.0 mm 0.00 in0.0 mm
03:10 AM 44.6°F7.0°C 42.1°F5.6°C 91% 1.5 mph WSW2.4 kmh WSW 5.4 mph8.7 kmh 30.15 in1021.0 mb 0.00 in0.0 mm 0.00 in0.0 mm 0.00 in0.0 mm
03:15 AM 44.8°F7.1°C 42.0°F5.6°C 90% 1.6 mph W2.6 kmh W 6.0 mph9.7 kmh 30.15 in1021.0 mb 0.00 in0.0 mm 0.00 in0.0 mm 0.00 in0.0 mm
03:20 AM 44.8°F7.1°C 42.0°F5.6°C 90% 1.4 mph WSW2.3 kmh WSW 6.0 mph9.7 kmh 30.15 in1021.0 mb 0.00 in0.0 mm 0.00 in0.0 mm 0.00 in0.0 mm
03:25 AM 44.6°F7.0°C 41.9°F5.5°C 90% 0.9 mph WSW1.4 kmh WSW 5.4 mph8.7 kmh 30.15 in1021.0 mb 0.00 in0.0 mm 0.00 in0.0 mm 0.00 in0.0 mm
03:30 AM 44.8°F7.1°C 41.7°F5.4°C 89% 1.6 mph WSW2.6 kmh WSW 5.4 mph8.7 kmh 30.15 in1021.0 mb 0.00 in0.0 mm 0.00 in0.0 mm 0.00 in0.0 mm
03:40 AM 45.0°F7.2°C 41.6°F5.3°C 88% 3.4 mph WSW5.5 kmh WSW 6.9 mph11.1 kmh 30.15 in1021.0 mb 0.00 in0.0 mm 0.00 in0.0 mm 0.00 in0.0 mm
03:45 AM 45.0°F7.2°C 41.6°F5.3°C 88% 3.8 mph W6.1 kmh W 8.3 mph13.4 kmh 30.15 in1021.0 mb 0.00 in0.0 mm 0.00 in0.0 mm 0.00 in0.0 mm
03:50 AM 44.8°F7.1°C 41.2°F5.1°C 87% 3.3 mph W5.3 kmh W 8.3 mph13.4 kmh 30.15 in1021.0 mb 0.00 in0.0 mm 0.00 in0.0 mm 0.00 in0.0 mm
03:55 AM 44.6°F7.0°C 41.3°F5.2°C 88% 3.5 mph W5.6 kmh W 8.3 mph13.4 kmh 30.15 in1021.0 mb 0.00 in0.0 mm 0.00 in0.0 mm 0.00 in0.0 mm
04:00 AM 44.4°F6.9°C 41.1°F5.1°C 88% 3.4 mph W5.5 kmh W 8.3 mph13.4 kmh 30.15 in1021.0 mb 0.00 in0.0 mm 0.00 in0.0 mm 0.00 in0.0 mm
04:05 AM 44.4°F6.9°C 41.1°F5.1°C 88% 2.7 mph WSW4.3 kmh WSW 6.9 mph11.1 kmh 30.14 in1020.7 mb 0.00 in0.0 mm 0.00 in0.0 mm 0.00 in0.0 mm
04:10 AM 44.4°F6.9°C 41.1°F5.1°C 88% 2.2 mph WSW3.5 kmh WSW 6.0 mph9.7 kmh 30.14 in1020.7 mb 0.00 in0.0 mm 0.00 in0.0 mm 0.00 in0.0 mm
04:15 AM 44.2°F6.8°C 41.2°F5.1°C 89% 2.2 mph WSW3.5 kmh WSW 5.4 mph8.7 kmh 30.15 in1021.0 mb 0.00 in0.0 mm 0.00 in0.0 mm 0.00 in0.0 mm
04:20 AM 44.1°F6.7°C 41.0°F5.0°C 89% 2.3 mph WSW3.7 kmh WSW 5.4 mph8.7 kmh 30.14 in1020.7 mb 0.00 in0.0 mm 0.00 in0.0 mm 0.00 in0.0 mm
04:25 AM 44.1°F6.7°C 41.0°F5.0°C 89% 2.1 mph WSW3.4 kmh WSW 5.4 mph8.7 kmh 30.15 in1021.0 mb 0.00 in0.0 mm 0.00 in0.0 mm 0.00 in0.0 mm
04:30 AM 43.9°F6.6°C 40.9°F4.9°C 89% 1.6 mph WSW2.6 kmh WSW 5.4 mph8.7 kmh 30.14 in1020.7 mb 0.00 in0.0 mm 0.00 in0.0 mm 0.00 in0.0 mm
04:35 AM 43.9°F6.6°C 40.9°F4.9°C 89% 1.4 mph WSW2.3 kmh WSW 4.5 mph7.2 kmh 30.14 in1020.7 mb 0.00 in0.0 mm 0.00 in0.0 mm 0.00 in0.0 mm
04:40 AM 43.9°F6.6°C 40.9°F4.9°C 89% 1.2 mph WSW1.9 kmh WSW 4.5 mph7.2 kmh 30.15 in1021.0 mb 0.00 in0.0 mm 0.00 in0.0 mm 0.00 in0.0 mm
04:45 AM 43.9°F6.6°C 40.9°F4.9°C 89% 1.0 mph WSW1.6 kmh WSW 4.5 mph7.2 kmh 30.15 in1021.0 mb 0.00 in0.0 mm 0.00 in0.0 mm 0.00 in0.0 mm
04:50 AM 43.9°F6.6°C 40.9°F4.9°C 89% 0.8 mph WSW1.3 kmh WSW 4.5 mph7.2 kmh 30.15 in1021.0 mb 0.00 in0.0 mm 0.00 in0.0 mm 0.00 in0.0 mm
04:55 AM 43.9°F6.6°C 40.9°F4.9°C 89% 0.3 mph SW0.5 kmh SW 3.1 mph5.0 kmh 30.15 in1021.0 mb 0.00 in0.0 mm 0.00 in0.0 mm 0.00 in0.0 mm
05:00 AM 43.9°F6.6°C 40.9°F4.9°C 89% 0.2 mph SW0.3 kmh SW 2.2 mph3.5 kmh 30.15 in1021.0 mb 0.00 in0.0 mm 0.00 in0.0 mm 0.00 in0.0 mm
05:05 AM 43.3°F6.3°C 40.0°F4.4°C 88% 0.2 mph SW0.3 kmh SW 2.2 mph3.5 kmh 30.15 in1021.0 mb 0.00 in0.0 mm 0.00 in0.0 mm 0.00 in0.0 mm
05:10 AM 43.2°F6.2°C 40.4°F4.7°C 90% 0.2 mph SW0.3 kmh SW 3.1 mph5.0 kmh 30.15 in1021.0 mb 0.00 in0.0 mm 0.00 in0.0 mm 0.00 in0.0 mm
05:15 AM 43.2°F6.2°C 40.7°F4.8°C 91% 0.9 mph SW1.4 kmh SW 3.1 mph5.0 kmh 30.15 in1021.0 mb 0.00 in0.0 mm 0.00 in0.0 mm 0.00 in0.0 mm
05:20 AM 43.0°F6.1°C 40.3°F4.6°C 90% 0.9 mph SW1.4 kmh SW 3.1 mph5.0 kmh 30.15 in1021.0 mb 0.00 in0.0 mm 0.00 in0.0 mm 0.00 in0.0 mm
05:25 AM 42.8°F6.0°C 40.4°F4.7°C 91% 0.5 mph SW0.8 kmh SW 4.5 mph7.2 kmh 30.15 in1021.0 mb 0.00 in0.0 mm 0.00 in0.0 mm 0.00 in0.0 mm
05:30 AM 43.0°F6.1°C 40.5°F4.7°C 91% 1.1 mph SW1.8 kmh SW 4.5 mph7.2 kmh 30.15 in1021.0 mb 0.00 in0.0 mm 0.00 in0.0 mm 0.00 in0.0 mm
05:35 AM 43.0°F6.1°C 40.5°F4.7°C 91% 0.9 mph WSW1.4 kmh WSW 4.5 mph7.2 kmh 30.15 in1021.0 mb 0.00 in0.0 mm 0.00 in0.0 mm 0.00 in0.0 mm
05:40 AM 43.0°F6.1°C 40.5°F4.7°C 91% 0.3 mph SW0.5 kmh SW 3.1 mph5.0 kmh 30.15 in1021.0 mb 0.00 in0.0 mm 0.00 in0.0 mm 0.00 in0.0 mm
05:45 AM 43.2°F6.2°C 40.7°F4.8°C 91% 0.3 mph SSW0.5 kmh SSW 2.2 mph3.5 kmh 30.15 in1021.0 mb 0.00 in0.0 mm 0.00 in0.0 mm 0.00 in0.0 mm
05:50 AM 43.0°F6.1°C 40.3°F4.6°C 90% 0.2 mph SW0.3 kmh SW 2.2 mph3.5 kmh 30.16 in1021.3 mb 0.00 in0.0 mm 0.00 in0.0 mm 0.00 in0.0 mm
05:55 AM 43.0°F6.1°C 40.3°F4.6°C 90% 0.1 mph WSW0.2 kmh WSW 2.2 mph3.5 kmh 30.15 in1021.0 mb 0.00 in0.0 mm 0.00 in0.0 mm 0.00 in0.0 mm
06:00 AM 43.0°F6.1°C 40.3°F4.6°C 90% 0.5 mph SW0.8 kmh SW 3.8 mph6.1 kmh 30.15 in1021.0 mb 0.00 in0.0 mm 0.00 in0.0 mm 0.00 in0.0 mm
06:05 AM 43.0°F6.1°C 40.3°F4.6°C 90% 1.0 mph SW1.6 kmh SW 3.8 mph6.1 kmh 30.16 in1021.3 mb 0.00 in0.0 mm 0.00 in0.0 mm 0.00 in0.0 mm
06:10 AM 42.8°F6.0°C 40.1°F4.5°C 90% 1.0 mph SW1.6 kmh SW 3.1 mph5.0 kmh 30.16 in1021.3 mb 0.00 in0.0 mm 0.00 in0.0 mm 0.00 in0.0 mm
06:15 AM 42.4°F5.8°C 39.7°F4.3°C 90% 1.0 mph WSW1.6 kmh WSW 3.1 mph5.0 kmh 30.16 in1021.3 mb 0.00 in0.0 mm 0.00 in0.0 mm 0.00 in0.0 mm
06:20 AM 42.1°F5.6°C 39.6°F4.2°C 91% 1.2 mph SW1.9 kmh SW 3.1 mph5.0 kmh 30.16 in1021.3 mb 0.00 in0.0 mm 0.00 in0.0 mm 0.00 in0.0 mm
06:25 AM 41.9°F5.5°C 39.5°F4.2°C 91% 1.1 mph SW1.8 kmh SW 3.1 mph5.0 kmh 30.16 in1021.3 mb 0.00 in0.0 mm 0.00 in0.0 mm 0.00 in0.0 mm
06:30 AM 41.9°F5.5°C 39.7°F4.3°C 92% 1.1 mph SW1.8 kmh SW 3.8 mph6.1 kmh 30.16 in1021.3 mb 0.00 in0.0 mm 0.00 in0.0 mm 0.00 in0.0 mm
06:35 AM 42.1°F5.6°C 39.9°F4.4°C 92% 1.2 mph SW1.9 kmh SW 3.8 mph6.1 kmh 30.16 in1021.3 mb 0.00 in0.0 mm 0.00 in0.0 mm 0.00 in0.0 mm
06:40 AM 42.1°F5.6°C 39.9°F4.4°C 92% 1.1 mph SW1.8 kmh SW 3.8 mph6.1 kmh 30.16 in1021.3 mb 0.00 in0.0 mm 0.00 in0.0 mm 0.00 in0.0 mm
06:45 AM 42.3°F5.7°C 39.8°F4.3°C 91% 1.2 mph SW1.9 kmh SW 3.8 mph6.1 kmh 30.17 in1021.7 mb 0.00 in0.0 mm 0.00 in0.0 mm 0.00 in0.0 mm
06:50 AM 42.3°F5.7°C 39.8°F4.3°C 91% 1.4 mph SW2.3 kmh SW 4.5 mph7.2 kmh 30.17 in1021.7 mb 0.00 in0.0 mm 0.00 in0.0 mm 0.00 in0.0 mm
06:55 AM 42.1°F5.6°C 39.6°F4.2°C 91% 0.9 mph SW1.4 kmh SW 4.5 mph7.2 kmh 30.17 in1021.7 mb 0.00 in0.0 mm 0.00 in0.0 mm 0.00 in0.0 mm
07:00 AM 42.1°F5.6°C 39.9°F4.4°C 92% 0.5 mph SW0.8 kmh SW 3.8 mph6.1 kmh 30.17 in1021.7 mb 0.00 in0.0 mm 0.00 in0.0 mm 0.00 in0.0 mm
07:40 AM 41.9°F5.5°C 39.2°F4.0°C 90% 1.9 mph SW3.1 kmh SW 5.4 mph8.7 kmh 30.19 in1022.4 mb 0.00 in0.0 mm 0.00 in0.0 mm 0.00 in0.0 mm
07:45 AM 42.3°F5.7°C 39.8°F4.3°C 91% 1.6 mph WSW2.6 kmh WSW 4.5 mph7.2 kmh 30.19 in1022.4 mb 0.00 in0.0 mm 0.00 in0.0 mm 0.00 in0.0 mm
07:50 AM 42.4°F5.8°C 40.0°F4.4°C 91% 1.9 mph WSW3.1 kmh WSW 4.5 mph7.2 kmh 30.19 in1022.4 mb 0.00 in0.0 mm 0.00 in0.0 mm 0.00 in0.0 mm
07:55 AM 42.6°F5.9°C 40.2°F4.6°C 91% 2.2 mph WSW3.5 kmh WSW 5.4 mph8.7 kmh 30.19 in1022.4 mb 0.00 in0.0 mm 0.00 in0.0 mm 0.00 in0.0 mm
08:00 AM 43.0°F6.1°C 40.3°F4.6°C 90% 2.5 mph WSW4.0 kmh WSW 6.0 mph9.7 kmh 30.20 in1022.7 mb 0.00 in0.0 mm 0.00 in0.0 mm 0.00 in0.0 mm
08:05 AM 43.3°F6.3°C 40.3°F4.6°C 89% 2.4 mph WSW3.9 kmh WSW 6.0 mph9.7 kmh 30.20 in1022.7 mb 0.00 in0.0 mm 0.00 in0.0 mm 0.00 in0.0 mm
08:10 AM 43.9°F6.6°C 40.6°F4.8°C 88% 1.8 mph WSW2.9 kmh WSW 4.5 mph7.2 kmh 30.20 in1022.7 mb 0.00 in0.0 mm 0.00 in0.0 mm 0.00 in0.0 mm
08:15 AM 44.1°F6.7°C 40.1°F4.5°C 86% 2.0 mph W3.2 kmh W 6.9 mph11.1 kmh 30.20 in1022.7 mb 0.00 in0.0 mm 0.00 in0.0 mm 0.00 in0.0 mm
08:20 AM 43.9°F6.6°C 40.0°F4.4°C 86% 2.6 mph WSW4.2 kmh WSW 6.9 mph11.1 kmh 30.20 in1022.7 mb 0.00 in0.0 mm 0.00 in0.0 mm 0.00 in0.0 mm
08:25 AM 44.4°F6.9°C 40.5°F4.7°C 86% 2.3 mph WSW3.7 kmh WSW 6.0 mph9.7 kmh 30.20 in1022.7 mb 0.00 in0.0 mm 0.00 in0.0 mm 0.00 in0.0 mm
08:30 AM 45.0°F7.2°C 40.7°F4.8°C 85% 2.4 mph WSW3.9 kmh WSW 6.0 mph9.7 kmh 30.21 in1023.0 mb 0.00 in0.0 mm 0.00 in0.0 mm 0.00 in0.0 mm
08:35 AM 45.3°F7.4°C 40.8°F4.9°C 84% 2.7 mph WSW4.3 kmh WSW 6.0 mph9.7 kmh 30.21 in1023.0 mb 0.00 in0.0 mm 0.00 in0.0 mm 0.00 in0.0 mm
08:40 AM 45.7°F7.6°C 40.8°F4.9°C 83% 2.4 mph WSW3.9 kmh WSW 6.0 mph9.7 kmh 30.20 in1022.7 mb 0.00 in0.0 mm 0.00 in0.0 mm 0.00 in0.0 mm
08:45 AM 45.5°F7.5°C 40.3°F4.6°C 82% 2.6 mph WSW4.2 kmh WSW 6.9 mph11.1 kmh 30.20 in1022.7 mb 0.00 in0.0 mm 0.00 in0.0 mm 0.00 in0.0 mm
08:50 AM 45.3°F7.4°C 40.5°F4.7°C 83% 3.0 mph W4.8 kmh W 6.9 mph11.1 kmh 30.21 in1023.0 mb 0.00 in0.0 mm 0.00 in0.0 mm 0.00 in0.0 mm
08:55 AM 45.1°F7.3°C 40.3°F4.6°C 83% 3.0 mph W4.8 kmh W 7.6 mph12.2 kmh 30.21 in1023.0 mb 0.00 in0.0 mm 0.00 in0.0 mm 0.00 in0.0 mm
09:00 AM 45.5°F7.5°C 41.0°F5.0°C 84% 2.9 mph WSW4.7 kmh WSW 7.6 mph12.2 kmh 30.21 in1023.0 mb 0.00 in0.0 mm 0.00 in0.0 mm 0.00 in0.0 mm
09:05 AM 45.7°F7.6°C 41.1°F5.1°C 84% 2.8 mph SW4.5 kmh SW 6.9 mph11.1 kmh 30.21 in1023.0 mb 0.00 in0.0 mm 0.00 in0.0 mm 0.00 in0.0 mm
09:10 AM 45.9°F7.7°C 41.3°F5.2°C 84% 3.0 mph SW4.8 kmh SW 5.4 mph8.7 kmh 30.22 in1023.4 mb 0.00 in0.0 mm 0.00 in0.0 mm 0.00 in0.0 mm
09:15 AM 45.9°F7.7°C 41.3°F5.2°C 84% 3.1 mph SW5.0 kmh SW 5.4 mph8.7 kmh 30.22 in1023.4 mb 0.00 in0.0 mm 0.00 in0.0 mm 0.00 in0.0 mm
09:20 AM 46.0°F7.8°C 41.5°F5.3°C 84% 3.0 mph SW4.8 kmh SW 6.0 mph9.7 kmh 30.22 in1023.4 mb 0.00 in0.0 mm 0.00 in0.0 mm 0.00 in0.0 mm
09:25 AM 46.2°F7.9°C 41.7°F5.4°C 84% 2.7 mph WSW4.3 kmh WSW 6.0 mph9.7 kmh 30.22 in1023.4 mb 0.00 in0.0 mm 0.00 in0.0 mm 0.00 in0.0 mm
09:30 AM 46.4°F8.0°C 41.8°F5.4°C 84% 2.3 mph WSW3.7 kmh WSW 6.0 mph9.7 kmh 30.22 in1023.4 mb 0.00 in0.0 mm 0.00 in0.0 mm 0.00 in0.0 mm
09:35 AM 46.2°F7.9°C 41.3°F5.2°C 83% 2.6 mph SW4.2 kmh SW 6.0 mph9.7 kmh 30.22 in1023.4 mb 0.00 in0.0 mm 0.00 in0.0 mm 0.00 in0.0 mm
09:40 AM 46.2°F7.9°C 41.0°F5.0°C 82% 3.1 mph WSW5.0 kmh WSW 6.0 mph9.7 kmh 30.22 in1023.4 mb 0.00 in0.0 mm 0.00 in0.0 mm 0.00 in0.0 mm
09:45 AM 46.0°F7.8°C 41.2°F5.1°C 83% 3.1 mph SW5.0 kmh SW 6.0 mph9.7 kmh 30.22 in1023.4 mb 0.00 in0.0 mm 0.00 in0.0 mm 0.00 in0.0 mm
09:50 AM 46.2°F7.9°C 41.7°F5.4°C 84% 3.1 mph SW5.0 kmh SW 6.9 mph11.1 kmh 30.22 in1023.4 mb 0.00 in0.0 mm 0.00 in0.0 mm 0.00 in0.0 mm
09:55 AM 46.6°F8.1°C 42.0°F5.6°C 84% 3.4 mph SW5.5 kmh SW 6.9 mph11.1 kmh 30.22 in1023.4 mb 0.00 in0.0 mm 0.00 in0.0 mm 0.00 in0.0 mm
10:00 AM 46.8°F8.2°C 42.2°F5.7°C 84% 3.5 mph SW5.6 kmh SW 6.9 mph11.1 kmh 30.22 in1023.4 mb 0.00 in0.0 mm 0.00 in0.0 mm 0.00 in0.0 mm
10:05 AM 47.1°F8.4°C 42.5°F5.8°C 84% 3.1 mph SW5.0 kmh SW 5.4 mph8.7 kmh 30.22 in1023.4 mb 0.00 in0.0 mm 0.00 in0.0 mm 0.00 in0.0 mm
10:10 AM 47.3°F8.5°C 43.0°F6.1°C 85% 1.9 mph SW3.1 kmh SW 5.4 mph8.7 kmh 30.22 in1023.4 mb 0.00 in0.0 mm 0.00 in0.0 mm 0.00 in0.0 mm
10:15 AM 47.3°F8.5°C 43.0°F6.1°C 85% 1.3 mph WSW2.1 kmh WSW 5.4 mph8.7 kmh 30.22 in1023.4 mb 0.00 in0.0 mm 0.00 in0.0 mm 0.00 in0.0 mm
10:20 AM 47.5°F8.6°C 43.2°F6.2°C 85% 1.6 mph W2.6 kmh W 5.4 mph8.7 kmh 30.23 in1023.7 mb 0.00 in0.0 mm 0.00 in0.0 mm 0.00 in0.0 mm
10:25 AM 47.7°F8.7°C 43.1°F6.2°C 84% 1.3 mph W2.1 kmh W 5.4 mph8.7 kmh 30.22 in1023.4 mb 0.00 in0.0 mm 0.00 in0.0 mm 0.00 in0.0 mm
10:30 AM 48.0°F8.9°C 43.4°F6.3°C 84% 0.8 mph WNW1.3 kmh WNW 3.8 mph6.1 kmh 30.23 in1023.7 mb 0.00 in0.0 mm 0.00 in0.0 mm 0.00 in0.0 mm
10:35 AM 48.4°F9.1°C 43.5°F6.4°C 83% 1.3 mph W2.1 kmh W 4.5 mph7.2 kmh 30.23 in1023.7 mb 0.00 in0.0 mm 0.00 in0.0 mm 0.00 in0.0 mm
10:40 AM 48.9°F9.4°C 44.0°F6.7°C 83% 2.2 mph WNW3.5 kmh WNW 6.9 mph11.1 kmh 30.23 in1023.7 mb 0.00 in0.0 mm 0.00 in0.0 mm 0.00 in0.0 mm
10:45 AM 49.8°F9.9°C 44.6°F7.0°C 82% 3.2 mph NNW5.1 kmh NNW 9.8 mph15.8 kmh 30.23 in1023.7 mb 0.00 in0.0 mm 0.00 in0.0 mm 0.00 in0.0 mm
10:50 AM 50.2°F10.1°C 44.6°F7.0°C 81% 4.3 mph N6.9 kmh N 10.7 mph17.2 kmh 30.23 in1023.7 mb 0.00 in0.0 mm 0.00 in0.0 mm 0.00 in0.0 mm
10:55 AM 50.4°F10.2°C 44.1°F6.7°C 79% 5.0 mph NNW8.0 kmh NNW 10.7 mph17.2 kmh 30.23 in1023.7 mb 0.00 in0.0 mm 0.00 in0.0 mm 0.00 in0.0 mm
11:00 AM 50.5°F10.3°C 44.3°F6.8°C 79% 5.3 mph N8.5 kmh N 9.2 mph14.8 kmh 30.23 in1023.7 mb 0.00 in0.0 mm 0.00 in0.0 mm 0.00 in0.0 mm
11:05 AM 50.7°F10.4°C 44.1°F6.7°C 78% 5.0 mph N8.0 kmh N 9.8 mph15.8 kmh 30.23 in1023.7 mb 0.00 in0.0 mm 0.00 in0.0 mm 0.00 in0.0 mm
11:10 AM 50.9°F10.5°C 44.3°F6.8°C 78% 4.2 mph N6.8 kmh N 9.8 mph15.8 kmh 30.23 in1023.7 mb 0.00 in0.0 mm 0.00 in0.0 mm 0.00 in0.0 mm
11:15 AM 50.9°F10.5°C 44.0°F6.7°C 77% 4.0 mph N6.4 kmh N 9.8 mph15.8 kmh 30.23 in1023.7 mb 0.00 in0.0 mm 0.00 in0.0 mm 0.00 in0.0 mm
11:20 AM 50.9°F10.5°C 43.6°F6.4°C 76% 5.2 mph N8.4 kmh N 11.4 mph18.3 kmh 30.23 in1023.7 mb 0.00 in0.0 mm 0.00 in0.0 mm 0.00 in0.0 mm
11:25 AM 50.9°F10.5°C 43.6°F6.4°C 76% 5.5 mph N8.9 kmh N 13.0 mph20.9 kmh 30.23 in1023.7 mb 0.00 in0.0 mm 0.00 in0.0 mm 0.00 in0.0 mm
11:30 AM 50.9°F10.5°C 43.3°F6.3°C 75% 5.2 mph N8.4 kmh N 13.0 mph20.9 kmh 30.23 in1023.7 mb 0.00 in0.0 mm 0.00 in0.0 mm 0.00 in0.0 mm
11:35 AM 50.7°F10.4°C 43.1°F6.2°C 75% 5.5 mph N8.9 kmh N 13.0 mph20.9 kmh 30.22 in1023.4 mb 0.00 in0.0 mm 0.00 in0.0 mm 0.00 in0.0 mm
11:40 AM 50.7°F10.4°C 43.1°F6.2°C 75% 5.9 mph N9.5 kmh N 13.0 mph20.9 kmh 30.22 in1023.4 mb 0.00 in0.0 mm 0.00 in0.0 mm 0.00 in0.0 mm
11:45 AM 50.7°F10.4°C 42.7°F5.9°C 74% 7.5 mph N12.1 kmh N 16.8 mph27.0 kmh 30.22 in1023.4 mb 0.00 in0.0 mm 0.00 in0.0 mm 0.00 in0.0 mm
11:50 AM 50.7°F10.4°C 42.7°F5.9°C 74% 8.5 mph N13.7 kmh N 16.8 mph27.0 kmh 30.23 in1023.7 mb 0.00 in0.0 mm 0.00 in0.0 mm 0.00 in0.0 mm
11:55 AM 50.5°F10.3°C 42.6°F5.9°C 74% 8.3 mph N13.4 kmh N 16.8 mph27.0 kmh 30.22 in1023.4 mb 0.00 in0.0 mm 0.00 in0.0 mm 0.00 in0.0 mm
12:00 PM 50.5°F10.3°C 42.6°F5.9°C 74% 6.9 mph NNE11.1 kmh NNE 16.8 mph27.0 kmh 30.22 in1023.4 mb 0.00 in0.0 mm 0.00 in0.0 mm 0.00 in0.0 mm
12:05 PM 50.5°F10.3°C 42.6°F5.9°C 74% 5.7 mph NNE9.2 kmh NNE 15.2 mph24.5 kmh 30.22 in1023.4 mb 0.00 in0.0 mm 0.00 in0.0 mm 0.00 in0.0 mm
12:10 PM 50.7°F10.4°C 43.1°F6.2°C 75% 5.5 mph N8.9 kmh N 15.2 mph24.5 kmh 30.22 in1023.4 mb 0.00 in0.0 mm 0.00 in0.0 mm 0.00 in0.0 mm
12:15 PM 50.7°F10.4°C 42.7°F5.9°C 74% 5.7 mph N9.2 kmh N 14.5 mph23.3 kmh 30.22 in1023.4 mb 0.00 in0.0 mm 0.00 in0.0 mm 0.00 in0.0 mm
12:20 PM 50.9°F10.5°C 42.9°F6.1°C 74% 6.1 mph N9.8 kmh N 14.5 mph23.3 kmh 30.22 in1023.4 mb 0.00 in0.0 mm 0.00 in0.0 mm 0.00 in0.0 mm
12:25 PM 50.9°F10.5°C 42.6°F5.9°C 73% 5.9 mph NNW9.5 kmh NNW 13.6 mph21.9 kmh 30.22 in1023.4 mb 0.00 in0.0 mm 0.00 in0.0 mm 0.00 in0.0 mm
12:30 PM 50.9°F10.5°C 42.2°F5.7°C 72% 6.5 mph N10.5 kmh N 13.6 mph21.9 kmh 30.22 in1023.4 mb 0.00 in0.0 mm 0.00 in0.0 mm 0.00 in0.0 mm
12:35 PM 50.9°F10.5°C 41.8°F5.4°C 71% 7.2 mph NNW11.6 kmh NNW 15.9 mph25.6 kmh 30.21 in1023.0 mb 0.00 in0.0 mm 0.00 in0.0 mm 0.00 in0.0 mm
12:40 PM 50.7°F10.4°C 41.3°F5.2°C 70% 7.8 mph NNW12.6 kmh NNW 15.9 mph25.6 kmh 30.21 in1023.0 mb 0.00 in0.0 mm 0.00 in0.0 mm 0.00 in0.0 mm
12:45 PM 50.7°F10.4°C 41.7°F5.4°C 71% 7.1 mph N11.4 kmh N 15.9 mph25.6 kmh 30.21 in1023.0 mb 0.00 in0.0 mm 0.00 in0.0 mm 0.00 in0.0 mm
12:50 PM 50.7°F10.4°C 41.7°F5.4°C 71% 6.0 mph N9.7 kmh N 15.9 mph25.6 kmh 30.22 in1023.4 mb 0.00 in0.0 mm 0.00 in0.0 mm 0.00 in0.0 mm
12:55 PM 50.9°F10.5°C 42.2°F5.7°C 72% 6.3 mph N10.1 kmh N 15.9 mph25.6 kmh 30.21 in1023.0 mb 0.00 in0.0 mm 0.00 in0.0 mm 0.00 in0.0 mm
01:00 PM 50.9°F10.5°C 42.2°F5.7°C 72% 7.1 mph N11.4 kmh N 14.5 mph23.3 kmh 30.21 in1023.0 mb 0.00 in0.0 mm 0.00 in0.0 mm 0.00 in0.0 mm
01:05 PM 51.6°F10.9°C 41.8°F5.4°C 69% 7.8 mph N12.6 kmh N 14.5 mph23.3 kmh 30.21 in1023.0 mb 0.00 in0.0 mm 0.00 in0.0 mm 0.00 in0.0 mm
01:10 PM 51.8°F11.0°C 42.0°F5.6°C 69% 7.3 mph N11.7 kmh N 17.4 mph28.0 kmh 30.21 in1023.0 mb 0.00 in0.0 mm 0.00 in0.0 mm 0.00 in0.0 mm
01:15 PM 51.4°F10.8°C 41.6°F5.3°C 69% 6.8 mph N10.9 kmh N 17.4 mph28.0 kmh 30.21 in1023.0 mb 0.00 in0.0 mm 0.00 in0.0 mm 0.00 in0.0 mm
01:20 PM 52.0°F11.1°C 42.1°F5.6°C 69% 6.8 mph N10.9 kmh N 15.2 mph24.5 kmh 30.21 in1023.0 mb 0.00 in0.0 mm 0.00 in0.0 mm 0.00 in0.0 mm
01:25 PM 52.0°F11.1°C 41.8°F5.4°C 68% 7.6 mph N12.2 kmh N 15.9 mph25.6 kmh 30.21 in1023.0 mb 0.00 in0.0 mm 0.00 in0.0 mm 0.00 in0.0 mm
01:30 PM 51.6°F10.9°C 41.0°F5.0°C 67% 8.4 mph N13.5 kmh N 15.9 mph25.6 kmh 30.21 in1023.0 mb 0.00 in0.0 mm 0.00 in0.0 mm 0.00 in0.0 mm
01:35 PM 51.6°F10.9°C 41.0°F5.0°C 67% 8.5 mph N13.7 kmh N 17.4 mph28.0 kmh 30.21 in1023.0 mb 0.00 in0.0 mm 0.00 in0.0 mm 0.00 in0.0 mm
01:40 PM 51.3°F10.7°C 41.1°F5.1°C 68% 8.9 mph N14.3 kmh N 17.4 mph28.0 kmh 30.21 in1023.0 mb 0.00 in0.0 mm 0.00 in0.0 mm 0.00 in0.0 mm
01:45 PM 50.9°F10.5°C 40.3°F4.6°C 67% 8.6 mph N13.8 kmh N 17.4 mph28.0 kmh 30.22 in1023.4 mb 0.00 in0.0 mm 0.00 in0.0 mm 0.00 in0.0 mm
01:50 PM 50.7°F10.4°C 40.6°F4.8°C 68% 8.3 mph N13.4 kmh N 16.8 mph27.0 kmh 30.21 in1023.0 mb 0.00 in0.0 mm 0.00 in0.0 mm 0.00 in0.0 mm
01:55 PM 50.7°F10.4°C 40.6°F4.8°C 68% 7.6 mph NNW12.2 kmh NNW 15.2 mph24.5 kmh 30.21 in1023.0 mb 0.00 in0.0 mm 0.00 in0.0 mm 0.00 in0.0 mm
02:00 PM 50.7°F10.4°C 40.2°F4.6°C 67% 7.8 mph NNW12.6 kmh NNW 19.7 mph31.7 kmh 30.21 in1023.0 mb 0.00 in0.0 mm 0.00 in0.0 mm 0.00 in0.0 mm
02:05 PM 50.5°F10.3°C 40.0°F4.4°C 67% 9.3 mph NNW15.0 kmh NNW 21.3 mph34.3 kmh 30.21 in1023.0 mb 0.00 in0.0 mm 0.00 in0.0 mm 0.00 in0.0 mm
02:15 PM 50.4°F10.2°C 39.4°F4.1°C 66% 8.7 mph N14.0 kmh N 21.3 mph34.3 kmh 30.21 in1023.0 mb 0.00 in0.0 mm 0.00 in0.0 mm 0.00 in0.0 mm
02:20 PM 50.5°F10.3°C 39.6°F4.2°C 66% 7.7 mph N12.4 kmh N 16.8 mph27.0 kmh 30.21 in1023.0 mb 0.00 in0.0 mm 0.00 in0.0 mm 0.00 in0.0 mm
02:25 PM 50.7°F10.4°C 39.8°F4.3°C 66% 8.5 mph N13.7 kmh N 19.0 mph30.6 kmh 30.21 in1023.0 mb 0.00 in0.0 mm 0.00 in0.0 mm 0.00 in0.0 mm
02:30 PM 50.7°F10.4°C 39.4°F4.1°C 65% 9.0 mph NNW14.5 kmh NNW 19.0 mph30.6 kmh 30.21 in1023.0 mb 0.00 in0.0 mm 0.00 in0.0 mm 0.00 in0.0 mm
02:35 PM 51.1°F10.6°C 39.3°F4.1°C 64% 9.5 mph N15.3 kmh N 22.1 mph35.6 kmh 30.21 in1023.0 mb 0.00 in0.0 mm 0.00 in0.0 mm 0.00 in0.0 mm
02:40 PM 51.3°F10.7°C 39.1°F3.9°C 63% 10.1 mph NNE16.3 kmh NNE 22.1 mph35.6 kmh 30.21 in1023.0 mb 0.00 in0.0 mm 0.00 in0.0 mm 0.00 in0.0 mm
02:45 PM 51.3°F10.7°C 39.1°F3.9°C 63% 9.2 mph NNE14.8 kmh NNE 20.6 mph33.2 kmh 30.21 in1023.0 mb 0.00 in0.0 mm 0.00 in0.0 mm 0.00 in0.0 mm
02:50 PM 51.4°F10.8°C 38.9°F3.8°C 62% 8.5 mph N13.7 kmh N 18.3 mph29.5 kmh 30.21 in1023.0 mb 0.00 in0.0 mm 0.00 in0.0 mm 0.00 in0.0 mm
02:55 PM 51.3°F10.7°C 38.3°F3.5°C 61% 8.8 mph N14.2 kmh N 18.3 mph29.5 kmh 30.21 in1023.0 mb 0.00 in0.0 mm 0.00 in0.0 mm 0.00 in0.0 mm
03:00 PM 50.7°F10.4°C 37.8°F3.2°C 61% 8.4 mph N13.5 kmh N 18.3 mph29.5 kmh 30.21 in1023.0 mb 0.00 in0.0 mm 0.00 in0.0 mm 0.00 in0.0 mm
03:05 PM 50.9°F10.5°C 38.4°F3.6°C 62% 8.1 mph N13.0 kmh N 18.3 mph29.5 kmh 30.21 in1023.0 mb 0.00 in0.0 mm 0.00 in0.0 mm 0.00 in0.0 mm
03:10 PM 51.3°F10.7°C 38.7°F3.7°C 62% 7.8 mph N12.6 kmh N 18.3 mph29.5 kmh 30.21 in1023.0 mb 0.00 in0.0 mm 0.00 in0.0 mm 0.00 in0.0 mm
03:15 PM 51.3°F10.7°C 38.7°F3.7°C 62% 8.1 mph N13.0 kmh N 19.7 mph31.7 kmh 30.21 in1023.0 mb 0.00 in0.0 mm 0.00 in0.0 mm 0.00 in0.0 mm
03:20 PM 51.3°F10.7°C 38.7°F3.7°C 62% 8.4 mph N13.5 kmh N 19.7 mph31.7 kmh 30.22 in1023.4 mb 0.00 in0.0 mm 0.00 in0.0 mm 0.00 in0.0 mm
03:25 PM 51.1°F10.6°C 38.1°F3.4°C 61% 9.1 mph NNW14.6 kmh NNW 22.1 mph35.6 kmh 30.22 in1023.4 mb 0.00 in0.0 mm 0.00 in0.0 mm 0.00 in0.0 mm
03:30 PM 50.5°F10.3°C 37.2°F2.9°C 60% 10.2 mph NNW16.4 kmh NNW 22.1 mph35.6 kmh 30.22 in1023.4 mb 0.00 in0.0 mm 0.00 in0.0 mm 0.00 in0.0 mm
03:35 PM 50.2°F10.1°C 37.3°F2.9°C 61% 8.7 mph N14.0 kmh N 19.7 mph31.7 kmh 30.21 in1023.0 mb 0.00 in0.0 mm 0.00 in0.0 mm 0.00 in0.0 mm
03:40 PM 50.0°F10.0°C 37.5°F3.1°C 62% 7.5 mph N12.1 kmh N 16.8 mph27.0 kmh 30.22 in1023.4 mb 0.00 in0.0 mm 0.00 in0.0 mm 0.00 in0.0 mm
03:45 PM 49.8°F9.9°C 37.7°F3.2°C 63% 6.7 mph N10.8 kmh N 15.9 mph25.6 kmh 30.22 in1023.4 mb 0.00 in0.0 mm 0.00 in0.0 mm 0.00 in0.0 mm
03:50 PM 49.8°F9.9°C 37.7°F3.2°C 63% 6.3 mph N10.1 kmh N 15.9 mph25.6 kmh 30.22 in1023.4 mb 0.00 in0.0 mm 0.00 in0.0 mm 0.00 in0.0 mm
04:00 PM 50.4°F10.2°C 37.4°F3.0°C 61% 7.8 mph N12.6 kmh N 17.4 mph28.0 kmh 30.23 in1023.7 mb 0.00 in0.0 mm 0.00 in0.0 mm 0.00 in0.0 mm
04:05 PM 50.4°F10.2°C 37.4°F3.0°C 61% 9.0 mph N14.5 kmh N 19.7 mph31.7 kmh 30.23 in1023.7 mb 0.00 in0.0 mm 0.00 in0.0 mm 0.00 in0.0 mm
04:10 PM 50.2°F10.1°C 36.8°F2.7°C 60% 10.1 mph NNW16.3 kmh NNW 22.8 mph36.7 kmh 30.23 in1023.7 mb 0.00 in0.0 mm 0.00 in0.0 mm 0.00 in0.0 mm
04:20 PM 49.8°F9.9°C 37.3°F2.9°C 62% 7.9 mph NW12.7 kmh NW 17.4 mph28.0 kmh 30.24 in1024.0 mb 0.00 in0.0 mm 0.00 in0.0 mm 0.00 in0.0 mm
04:25 PM 49.6°F9.8°C 37.2°F2.9°C 62% 8.0 mph NNW12.9 kmh NNW 15.9 mph25.6 kmh 30.24 in1024.0 mb 0.00 in0.0 mm 0.00 in0.0 mm 0.00 in0.0 mm
04:30 PM 49.5°F9.7°C 37.0°F2.8°C 62% 8.4 mph NNW13.5 kmh NNW 19.0 mph30.6 kmh 30.24 in1024.0 mb 0.00 in0.0 mm 0.00 in0.0 mm 0.00 in0.0 mm
04:35 PM 49.3°F9.6°C 36.8°F2.7°C 62% 8.1 mph NNW13.0 kmh NNW 19.0 mph30.6 kmh 30.24 in1024.0 mb 0.00 in0.0 mm 0.00 in0.0 mm 0.00 in0.0 mm
04:40 PM 49.1°F9.5°C 36.7°F2.6°C 62% 8.0 mph N12.9 kmh N 16.8 mph27.0 kmh 30.24 in1024.0 mb 0.00 in0.0 mm 0.00 in0.0 mm 0.00 in0.0 mm
04:45 PM 49.1°F9.5°C 35.8°F2.1°C 60% 8.9 mph N14.3 kmh N 15.2 mph24.5 kmh 30.24 in1024.0 mb 0.00 in0.0 mm 0.00 in0.0 mm 0.00 in0.0 mm
04:50 PM 49.1°F9.5°C 35.8°F2.1°C 60% 8.8 mph NNW14.2 kmh NNW 16.8 mph27.0 kmh 30.24 in1024.0 mb 0.00 in0.0 mm 0.00 in0.0 mm 0.00 in0.0 mm
04:55 PM 48.9°F9.4°C 35.2°F1.8°C 59% 7.6 mph NNW12.2 kmh NNW 17.4 mph28.0 kmh 30.24 in1024.0 mb 0.00 in0.0 mm 0.00 in0.0 mm 0.00 in0.0 mm
05:00 PM 48.9°F9.4°C 35.2°F1.8°C 59% 7.6 mph NW12.2 kmh NW 17.4 mph28.0 kmh 30.25 in1024.4 mb 0.00 in0.0 mm 0.00 in0.0 mm 0.00 in0.0 mm
05:05 PM 48.7°F9.3°C 34.6°F1.4°C 58% 9.1 mph NW14.6 kmh NW 21.3 mph34.3 kmh 30.24 in1024.0 mb 0.00 in0.0 mm 0.00 in0.0 mm 0.00 in0.0 mm
05:10 PM 48.9°F9.4°C 34.8°F1.6°C 58% 9.8 mph N15.8 kmh N 21.3 mph34.3 kmh 30.25 in1024.4 mb 0.00 in0.0 mm 0.00 in0.0 mm 0.00 in0.0 mm
05:15 PM 48.7°F9.3°C 34.2°F1.2°C 57% 9.3 mph NNW15.0 kmh NNW 17.4 mph28.0 kmh 30.25 in1024.4 mb 0.00 in0.0 mm 0.00 in0.0 mm 0.00 in0.0 mm
05:20 PM 48.7°F9.3°C 33.8°F1.0°C 56% 9.5 mph NNW15.3 kmh NNW 20.6 mph33.2 kmh 30.24 in1024.0 mb 0.00 in0.0 mm 0.00 in0.0 mm 0.00 in0.0 mm
05:25 PM 48.7°F9.3°C 33.8°F1.0°C 56% 7.6 mph NNW12.2 kmh NNW 20.6 mph33.2 kmh 30.25 in1024.4 mb 0.00 in0.0 mm 0.00 in0.0 mm 0.00 in0.0 mm
05:30 PM 48.6°F9.2°C 34.0°F1.1°C 57% 6.1 mph N9.8 kmh N 13.6 mph21.9 kmh 30.25 in1024.4 mb 0.00 in0.0 mm 0.00 in0.0 mm 0.00 in0.0 mm
05:35 PM 48.4°F9.1°C 33.9°F1.1°C 57% 6.4 mph NNW10.3 kmh NNW 13.6 mph21.9 kmh 30.25 in1024.4 mb 0.00 in0.0 mm 0.00 in0.0 mm 0.00 in0.0 mm
05:40 PM 48.4°F9.1°C 33.9°F1.1°C 57% 6.3 mph NNW10.1 kmh NNW 13.6 mph21.9 kmh 30.25 in1024.4 mb 0.00 in0.0 mm 0.00 in0.0 mm 0.00 in0.0 mm
05:45 PM 48.4°F9.1°C 34.3°F1.3°C 58% 7.2 mph N11.6 kmh N 18.3 mph29.5 kmh 30.25 in1024.4 mb 0.00 in0.0 mm 0.00 in0.0 mm 0.00 in0.0 mm
05:50 PM 48.2°F9.0°C 34.1°F1.2°C 58% 7.8 mph N12.6 kmh N 18.3 mph29.5 kmh 30.25 in1024.4 mb 0.00 in0.0 mm 0.00 in0.0 mm 0.00 in0.0 mm
05:55 PM 48.2°F9.0°C 34.6°F1.4°C 59% 8.1 mph N13.0 kmh N 18.3 mph29.5 kmh 30.25 in1024.4 mb 0.00 in0.0 mm 0.00 in0.0 mm 0.00 in0.0 mm
06:00 PM 48.2°F9.0°C 34.6°F1.4°C 59% 8.9 mph NNW14.3 kmh NNW 20.6 mph33.2 kmh 30.25 in1024.4 mb 0.00 in0.0 mm 0.00 in0.0 mm 0.00 in0.0 mm
06:05 PM 48.4°F9.1°C 34.7°F1.5°C 59% 9.0 mph NNW14.5 kmh NNW 20.6 mph33.2 kmh 30.25 in1024.4 mb 0.00 in0.0 mm 0.00 in0.0 mm 0.00 in0.0 mm
06:10 PM 48.4°F9.1°C 34.7°F1.5°C 59% 7.8 mph NNW12.6 kmh NNW 20.6 mph33.2 kmh 30.25 in1024.4 mb 0.00 in0.0 mm 0.00 in0.0 mm 0.00 in0.0 mm
06:15 PM 48.4°F9.1°C 34.7°F1.5°C 59% 6.9 mph N11.1 kmh N 12.1 mph19.5 kmh 30.25 in1024.4 mb 0.00 in0.0 mm 0.00 in0.0 mm 0.00 in0.0 mm
06:20 PM 48.0°F8.9°C 34.4°F1.3°C 59% 5.6 mph N9.0 kmh N 12.1 mph19.5 kmh 30.25 in1024.4 mb 0.00 in0.0 mm 0.00 in0.0 mm 0.00 in0.0 mm
06:25 PM 47.8°F8.8°C 34.6°F1.4°C 60% 4.4 mph N7.1 kmh N 11.4 mph18.3 kmh 30.25 in1024.4 mb 0.00 in0.0 mm 0.00 in0.0 mm 0.00 in0.0 mm
06:30 PM 47.5°F8.6°C 34.7°F1.5°C 61% 4.8 mph N7.7 kmh N 9.8 mph15.8 kmh 30.25 in1024.4 mb 0.00 in0.0 mm 0.00 in0.0 mm 0.00 in0.0 mm
06:35 PM 47.7°F8.7°C 34.9°F1.6°C 61% 5.7 mph N9.2 kmh N 13.6 mph21.9 kmh 30.25 in1024.4 mb 0.00 in0.0 mm 0.00 in0.0 mm 0.00 in0.0 mm
06:40 PM 48.0°F8.9°C 34.8°F1.6°C 60% 7.9 mph N12.7 kmh N 19.7 mph31.7 kmh 30.25 in1024.4 mb 0.00 in0.0 mm 0.00 in0.0 mm 0.00 in0.0 mm
06:45 PM 48.2°F9.0°C 35.0°F1.7°C 60% 7.8 mph N12.6 kmh N 19.7 mph31.7 kmh 30.26 in1024.7 mb 0.00 in0.0 mm 0.00 in0.0 mm 0.00 in0.0 mm
06:50 PM 48.0°F8.9°C 34.8°F1.6°C 60% 5.5 mph N8.9 kmh N 13.6 mph21.9 kmh 30.26 in1024.7 mb 0.00 in0.0 mm 0.00 in0.0 mm 0.00 in0.0 mm
06:55 PM 48.0°F8.9°C 34.4°F1.3°C 59% 6.3 mph N10.1 kmh N 16.8 mph27.0 kmh 30.26 in1024.7 mb 0.00 in0.0 mm 0.00 in0.0 mm 0.00 in0.0 mm
07:00 PM 48.2°F9.0°C 34.1°F1.2°C 58% 6.9 mph NNW11.1 kmh NNW 16.8 mph27.0 kmh 30.26 in1024.7 mb 0.00 in0.0 mm 0.00 in0.0 mm 0.00 in0.0 mm
07:05 PM 48.2°F9.0°C 34.1°F1.2°C 58% 6.1 mph NW9.8 kmh NW 13.6 mph21.9 kmh 30.26 in1024.7 mb 0.00 in0.0 mm 0.00 in0.0 mm 0.00 in0.0 mm
07:10 PM 48.2°F9.0°C 33.7°F0.9°C 57% 7.4 mph NNW11.9 kmh NNW 17.4 mph28.0 kmh 30.26 in1024.7 mb 0.00 in0.0 mm 0.00 in0.0 mm 0.00 in0.0 mm
07:15 PM 48.2°F9.0°C 33.3°F0.7°C 56% 7.6 mph NNW12.2 kmh NNW 17.4 mph28.0 kmh 30.26 in1024.7 mb 0.00 in0.0 mm 0.00 in0.0 mm 0.00 in0.0 mm
07:20 PM 48.0°F8.9°C 32.6°F0.3°C 55% 5.8 mph NNW9.3 kmh NNW 17.4 mph28.0 kmh 30.27 in1025.1 mb 0.00 in0.0 mm 0.00 in0.0 mm 0.00 in0.0 mm
07:25 PM 48.0°F8.9°C 32.6°F0.3°C 55% 5.2 mph NNW8.4 kmh NNW 11.4 mph18.3 kmh 30.27 in1025.1 mb 0.00 in0.0 mm 0.00 in0.0 mm 0.00 in0.0 mm
07:30 PM 47.8°F8.8°C 32.5°F0.3°C 55% 5.0 mph N8.0 kmh N 11.4 mph18.3 kmh 30.27 in1025.1 mb 0.00 in0.0 mm 0.00 in0.0 mm 0.00 in0.0 mm
07:35 PM 47.7°F8.7°C 32.3°F0.2°C 55% 4.7 mph NNW7.6 kmh NNW 15.2 mph24.5 kmh 30.27 in1025.1 mb 0.00 in0.0 mm 0.00 in0.0 mm 0.00 in0.0 mm
07:40 PM 47.8°F8.8°C 32.5°F0.3°C 55% 5.1 mph NNW8.2 kmh NNW 15.2 mph24.5 kmh 30.27 in1025.1 mb 0.00 in0.0 mm 0.00 in0.0 mm 0.00 in0.0 mm
07:45 PM 47.8°F8.8°C 32.5°F0.3°C 55% 4.8 mph N7.7 kmh N 15.2 mph24.5 kmh 30.27 in1025.1 mb 0.00 in0.0 mm 0.00 in0.0 mm 0.00 in0.0 mm
07:50 PM 47.8°F8.8°C 32.5°F0.3°C 55% 3.4 mph NNW5.5 kmh NNW 9.2 mph14.8 kmh 30.28 in1025.4 mb 0.00 in0.0 mm 0.00 in0.0 mm 0.00 in0.0 mm
07:55 PM 47.8°F8.8°C 32.5°F0.3°C 55% 3.2 mph NNW5.1 kmh NNW 9.2 mph14.8 kmh 30.28 in1025.4 mb 0.00 in0.0 mm 0.00 in0.0 mm 0.00 in0.0 mm
08:00 PM 47.7°F8.7°C 32.3°F0.2°C 55% 3.9 mph NNW6.3 kmh NNW 9.8 mph15.8 kmh 30.28 in1025.4 mb 0.00 in0.0 mm 0.00 in0.0 mm 0.00 in0.0 mm
08:05 PM 47.8°F8.8°C 32.9°F0.5°C 56% 3.5 mph NNW5.6 kmh NNW 9.8 mph15.8 kmh 30.28 in1025.4 mb 0.00 in0.0 mm 0.00 in0.0 mm 0.00 in0.0 mm
08:10 PM 47.8°F8.8°C 32.9°F0.5°C 56% 4.0 mph NNW6.4 kmh NNW 10.7 mph17.2 kmh 30.27 in1025.1 mb 0.00 in0.0 mm 0.00 in0.0 mm 0.00 in0.0 mm
08:15 PM 48.0°F8.9°C 33.5°F0.8°C 57% 4.7 mph NNW7.6 kmh NNW 13.0 mph20.9 kmh 30.27 in1025.1 mb 0.00 in0.0 mm 0.00 in0.0 mm 0.00 in0.0 mm
08:20 PM 48.0°F8.9°C 33.5°F0.8°C 57% 5.0 mph NNW8.0 kmh NNW 13.0 mph20.9 kmh 30.27 in1025.1 mb 0.00 in0.0 mm 0.00 in0.0 mm 0.00 in0.0 mm
08:25 PM 48.0°F8.9°C 33.5°F0.8°C 57% 5.3 mph N8.5 kmh N 12.1 mph19.5 kmh 30.28 in1025.4 mb 0.00 in0.0 mm 0.00 in0.0 mm 0.00 in0.0 mm
08:30 PM 48.2°F9.0°C 34.1°F1.2°C 58% 6.6 mph N10.6 kmh N 17.4 mph28.0 kmh 30.28 in1025.4 mb 0.00 in0.0 mm 0.00 in0.0 mm 0.00 in0.0 mm
08:35 PM 48.2°F9.0°C 34.1°F1.2°C 58% 6.8 mph N10.9 kmh N 17.4 mph28.0 kmh 30.28 in1025.4 mb 0.00 in0.0 mm 0.00 in0.0 mm 0.00 in0.0 mm
08:40 PM 48.2°F9.0°C 34.1°F1.2°C 58% 5.8 mph N9.3 kmh N 15.2 mph24.5 kmh 30.28 in1025.4 mb 0.00 in0.0 mm 0.00 in0.0 mm 0.00 in0.0 mm
08:45 PM 48.2°F9.0°C 34.6°F1.4°C 59% 6.3 mph NNE10.1 kmh NNE 15.2 mph24.5 kmh 30.27 in1025.1 mb 0.00 in0.0 mm 0.00 in0.0 mm 0.00 in0.0 mm
08:50 PM 48.2°F9.0°C 34.6°F1.4°C 59% 6.9 mph NNE11.1 kmh NNE 18.3 mph29.5 kmh 30.28 in1025.4 mb 0.00 in0.0 mm 0.00 in0.0 mm 0.00 in0.0 mm
08:55 PM 48.2°F9.0°C 34.6°F1.4°C 59% 7.0 mph N11.3 kmh N 18.3 mph29.5 kmh 30.28 in1025.4 mb 0.00 in0.0 mm 0.00 in0.0 mm 0.00 in0.0 mm
09:00 PM 48.2°F9.0°C 35.0°F1.7°C 60% 7.3 mph NNW11.7 kmh NNW 15.9 mph25.6 kmh 30.28 in1025.4 mb 0.00 in0.0 mm 0.00 in0.0 mm 0.00 in0.0 mm
09:05 PM 48.4°F9.1°C 35.1°F1.7°C 60% 7.0 mph NNW11.3 kmh NNW 16.8 mph27.0 kmh 30.28 in1025.4 mb 0.00 in0.0 mm 0.00 in0.0 mm 0.00 in0.0 mm
09:10 PM 48.4°F9.1°C 35.1°F1.7°C 60% 6.4 mph NNW10.3 kmh NNW 16.8 mph27.0 kmh 30.28 in1025.4 mb 0.00 in0.0 mm 0.00 in0.0 mm 0.00 in0.0 mm
09:15 PM 48.6°F9.2°C 34.9°F1.6°C 59% 7.0 mph N11.3 kmh N 16.8 mph27.0 kmh 30.28 in1025.4 mb 0.00 in0.0 mm 0.00 in0.0 mm 0.00 in0.0 mm
09:20 PM 48.4°F9.1°C 34.7°F1.5°C 59% 8.1 mph N13.0 kmh N 20.6 mph33.2 kmh 30.28 in1025.4 mb 0.00 in0.0 mm 0.00 in0.0 mm 0.00 in0.0 mm
09:25 PM 48.6°F9.2°C 34.5°F1.4°C 58% 9.5 mph NNW15.3 kmh NNW 22.1 mph35.6 kmh 30.29 in1025.7 mb 0.00 in0.0 mm 0.00 in0.0 mm 0.00 in0.0 mm
09:30 PM 48.6°F9.2°C 34.5°F1.4°C 58% 10.1 mph NNW16.3 kmh NNW 22.1 mph35.6 kmh 30.29 in1025.7 mb 0.00 in0.0 mm 0.00 in0.0 mm 0.00 in0.0 mm
09:35 PM 48.6°F9.2°C 34.5°F1.4°C 58% 9.3 mph NNW15.0 kmh NNW 18.3 mph29.5 kmh 30.29 in1025.7 mb 0.00 in0.0 mm 0.00 in0.0 mm 0.00 in0.0 mm
09:40 PM 48.4°F9.1°C 34.3°F1.3°C 58% 8.9 mph NNW14.3 kmh NNW 18.3 mph29.5 kmh 30.29 in1025.7 mb 0.00 in0.0 mm 0.00 in0.0 mm 0.00 in0.0 mm
09:45 PM 48.4°F9.1°C 34.3°F1.3°C 58% 7.9 mph N12.7 kmh N 18.3 mph29.5 kmh 30.29 in1025.7 mb 0.00 in0.0 mm 0.00 in0.0 mm 0.00 in0.0 mm
09:50 PM 48.4°F9.1°C 34.3°F1.3°C 58% 8.4 mph N13.5 kmh N 22.8 mph36.7 kmh 30.29 in1025.7 mb 0.00 in0.0 mm 0.00 in0.0 mm 0.00 in0.0 mm
09:55 PM 48.4°F9.1°C 34.3°F1.3°C 58% 9.2 mph NNW14.8 kmh NNW 22.8 mph36.7 kmh 30.29 in1025.7 mb 0.00 in0.0 mm 0.00 in0.0 mm 0.00 in0.0 mm
10:00 PM 48.2°F9.0°C 34.1°F1.2°C 58% 7.6 mph N12.2 kmh N 22.8 mph36.7 kmh 30.29 in1025.7 mb 0.00 in0.0 mm 0.00 in0.0 mm 0.00 in0.0 mm
10:05 PM 48.0°F8.9°C 33.5°F0.8°C 57% 8.3 mph NNW13.4 kmh NNW 22.1 mph35.6 kmh 30.29 in1025.7 mb 0.00 in0.0 mm 0.00 in0.0 mm 0.00 in0.0 mm
10:10 PM 48.2°F9.0°C 33.3°F0.7°C 56% 11.4 mph NNW18.3 kmh NNW 26.6 mph42.8 kmh 30.30 in1026.1 mb 0.00 in0.0 mm 0.00 in0.0 mm 0.00 in0.0 mm
10:15 PM 48.2°F9.0°C 32.3°F0.2°C 54% 11.9 mph NNW19.2 kmh NNW 26.6 mph42.8 kmh 30.30 in1026.1 mb 0.00 in0.0 mm 0.00 in0.0 mm 0.00 in0.0 mm
10:20 PM 48.0°F8.9°C 32.6°F0.3°C 55% 10.6 mph NNW17.1 kmh NNW 22.8 mph36.7 kmh 30.30 in1026.1 mb 0.00 in0.0 mm 0.00 in0.0 mm 0.00 in0.0 mm
10:25 PM 47.8°F8.8°C 32.5°F0.3°C 55% 9.5 mph NNW15.3 kmh NNW 22.8 mph36.7 kmh 30.30 in1026.1 mb 0.00 in0.0 mm 0.00 in0.0 mm 0.00 in0.0 mm
10:30 PM 47.7°F8.7°C 32.7°F0.4°C 56% 7.7 mph NNW12.4 kmh NNW 15.9 mph25.6 kmh 30.30 in1026.1 mb 0.00 in0.0 mm 0.00 in0.0 mm 0.00 in0.0 mm
10:35 PM 47.7°F8.7°C 32.7°F0.4°C 56% 8.8 mph NNW14.2 kmh NNW 22.1 mph35.6 kmh 30.30 in1026.1 mb 0.00 in0.0 mm 0.00 in0.0 mm 0.00 in0.0 mm
10:40 PM 47.7°F8.7°C 32.7°F0.4°C 56% 11.1 mph N17.9 kmh N 25.1 mph40.4 kmh 30.30 in1026.1 mb 0.00 in0.0 mm 0.00 in0.0 mm 0.00 in0.0 mm
10:45 PM 47.7°F8.7°C 33.2°F0.7°C 57% 11.8 mph N19.0 kmh N 28.2 mph45.4 kmh 30.30 in1026.1 mb 0.00 in0.0 mm 0.00 in0.0 mm 0.00 in0.0 mm
10:50 PM 47.5°F8.6°C 33.0°F0.6°C 57% 11.8 mph NNW19.0 kmh NNW 28.2 mph45.4 kmh 30.31 in1026.4 mb 0.00 in0.0 mm 0.00 in0.0 mm 0.00 in0.0 mm
10:55 PM 47.3°F8.5°C 33.3°F0.7°C 58% 8.7 mph NW14.0 kmh NW 19.7 mph31.7 kmh 30.30 in1026.1 mb 0.00 in0.0 mm 0.00 in0.0 mm 0.00 in0.0 mm
11:00 PM 47.1°F8.4°C 33.1°F0.6°C 58% 6.0 mph N9.7 kmh N 19.7 mph31.7 kmh 30.31 in1026.4 mb 0.00 in0.0 mm 0.00 in0.0 mm 0.00 in0.0 mm
11:05 PM 46.9°F8.3°C 32.9°F0.5°C 58% 6.1 mph NNW9.8 kmh NNW 17.4 mph28.0 kmh 30.31 in1026.4 mb 0.00 in0.0 mm 0.00 in0.0 mm 0.00 in0.0 mm
11:10 PM 46.9°F8.3°C 32.5°F0.3°C 57% 9.1 mph NW14.6 kmh NW 22.1 mph35.6 kmh 30.31 in1026.4 mb 0.00 in0.0 mm 0.00 in0.0 mm 0.00 in0.0 mm
11:15 PM 47.1°F8.4°C 32.7°F0.4°C 57% 11.4 mph NW18.3 kmh NW 22.1 mph35.6 kmh 30.31 in1026.4 mb 0.00 in0.0 mm 0.00 in0.0 mm 0.00 in0.0 mm
11:20 PM 47.1°F8.4°C 32.7°F0.4°C 57% 10.6 mph NW17.1 kmh NW 22.8 mph36.7 kmh 30.32 in1026.8 mb 0.00 in0.0 mm 0.00 in0.0 mm 0.00 in0.0 mm
11:25 PM 47.1°F8.4°C 33.1°F0.6°C 58% 10.6 mph NW17.1 kmh NW 22.8 mph36.7 kmh 30.31 in1026.4 mb 0.00 in0.0 mm 0.00 in0.0 mm 0.00 in0.0 mm
11:30 PM 46.8°F8.2°C 33.2°F0.7°C 59% 10.2 mph NW16.4 kmh NW 20.6 mph33.2 kmh 30.31 in1026.4 mb 0.00 in0.0 mm 0.00 in0.0 mm 0.00 in0.0 mm
11:35 PM 46.8°F8.2°C 33.6°F0.9°C 60% 9.6 mph NW15.4 kmh NW 19.0 mph30.6 kmh 30.32 in1026.8 mb 0.00 in0.0 mm 0.00 in0.0 mm 0.00 in0.0 mm
11:40 PM 46.8°F8.2°C 33.6°F0.9°C 60% 10.9 mph NW17.5 kmh NW 25.9 mph41.7 kmh 30.32 in1026.8 mb 0.00 in0.0 mm 0.00 in0.0 mm 0.00 in0.0 mm
11:45 PM 46.6°F8.1°C 33.5°F0.8°C 60% 12.2 mph NW19.6 kmh NW 25.9 mph41.7 kmh 30.32 in1026.8 mb 0.00 in0.0 mm 0.00 in0.0 mm 0.00 in0.0 mm
11:50 PM 46.6°F8.1°C 33.5°F0.8°C 60% 12.0 mph NW19.3 kmh NW 23.5 mph37.8 kmh 30.32 in1026.8 mb 0.00 in0.0 mm 0.00 in0.0 mm 0.00 in0.0 mm
11:55 PM 46.4°F8.0°C 33.3°F0.7°C 60% 10.1 mph NW16.3 kmh NW 23.5 mph37.8 kmh 30.32 in1026.8 mb 0.00 in0.0 mm 0.00 in0.0 mm 0.00 in0.0 mm